Terminal Aerodrome Forecast
Issued by NWS Charleston, WV

Home | Current Version | Previous Version | Text Only | Print | Product List | Glossary On
Versions: 1 2 3 4 5 6 7 8 9 10 11 12 13 14 15 16 17 18 19
000
FTUS41 KRLX 042300
TAFHTS
TAF
KHTS 042337Z 0500/0524 36009KT 3SM +RA BR OVC008
     FM050100 36008KT 2SM -SNRAPL BR OVC008
     FM050300 01006KT 1/2SM SN SCT001 OVC004
     FM051100 35009KT 3SM -SN BR OVC008
     FM051500 25008KT 3SM -SHSN OVC012
     FM051900 33008KT 4SM BR OVC020
     FM052300 34006KT P6SM BKN035=

USA.gov is the U.S. government's official web portal to all federal, state and local government web resources and services.